Time;durP1;ratioP1;P1;durP2;ratioP2;P2;SDS_P1;SDS_P2;PMS_P1;PMS_P2;Temp;Humidity;BMP_temperature;BMP_pressure;BME280_temperature;BME280_humidity;BME280_pressure;Samples;Min_cycle;Max_cycle;Signal;HPM_P1;HPM_P2
2022/02/17 00:02:22;;;;;;;16.10;3.93;;;;;;;16.66;100.00;99082.63;4911177;29;20279;-48
2022/02/17 00:04:48;;;;;;;22.17;5.22;;;;;;;16.20;100.00;99069.09;4906159;29;20045;-48
2022/02/17 00:07:13;;;;;;;19.73;4.33;;;;;;;16.46;100.00;99089.75;4916297;29;20103;-46
2022/02/17 00:09:39;;;;;;;17.13;3.65;;;;;;;16.26;100.00;99087.97;4905096;29;20033;-49
2022/02/17 00:12:04;;;;;;;20.50;4.33;;;;;;;16.11;100.00;99080.75;4911156;29;20056;-49
2022/02/17 00:14:30;;;;;;;18.50;4.38;;;;;;;16.02;100.00;99089.38;4911889;29;20040;-53
2022/02/17 00:16:56;;;;;;;13.47;4.37;;;;;;;16.96;100.00;99081.63;4904873;29;20033;-46
2022/02/17 00:19:22;;;;;;;23.53;3.93;;;;;;;16.05;100.00;99096.13;4916181;29;20300;-51
2022/02/17 00:21:49;;;;;;;17.88;4.07;;;;;;;16.19;100.00;99069.38;4906148;29;20044;-52
2022/02/17 00:24:16;;;;;;;14.10;3.13;;;;;;;16.02;100.00;99086.69;4910355;29;20051;-48
2022/02/17 00:26:42;;;;;;;12.07;3.27;;;;;;;15.90;100.00;99087.00;4913048;29;20279;-52
2022/02/17 00:29:09;;;;;;;20.80;4.35;;;;;;;16.23;100.00;99097.41;4903618;29;20268;-47
2022/02/17 00:31:34;;;;;;;18.50;3.15;;;;;;;15.91;100.00;99109.38;4914701;29;20040;-50
2022/02/17 00:34:02;;;;;;;27.50;4.43;;;;;;;16.05;100.00;99099.63;4907619;29;20045;-48
2022/02/17 00:36:29;;;;;;;22.47;4.93;;;;;;;16.01;100.00;99108.53;4908340;29;20283;-49
2022/02/17 00:38:55;;;;;;;31.40;6.32;;;;;;;16.09;100.00;99101.78;4898280;29;20327;-52
2022/02/17 00:41:21;;;;;;;;;;;;;;;16.38;100.00;99099.25;4903742;29;20055;-49
2022/02/17 00:43:50;;;;;;;25.83;4.57;;;;;;;15.97;100.00;99099.41;4913735;29;19974;-49
2022/02/17 00:46:16;;;;;;;19.30;4.90;;;;;;;16.03;100.00;99074.03;4909236;29;20044;-50
2022/02/17 00:48:41;;;;;;;22.93;4.90;;;;;;;16.11;100.00;99092.31;4898875;29;20280;-51
2022/02/17 00:51:07;;;;;;;28.07;5.00;;;;;;;15.78;100.00;99106.13;4915557;29;20308;-49
2022/02/17 00:53:32;;;;;;;41.47;5.68;;;;;;;16.05;100.00;99096.13;4903345;29;20105;-49
2022/02/17 00:55:58;;;;;;;29.67;5.43;;;;;;;15.97;100.00;99094.00;4912357;29;20056;-48
2022/02/17 00:58:23;;;;;;;28.63;4.47;;;;;;;16.10;100.00;99098.78;4893603;29;20085;-48
2022/02/17 01:00:49;;;;;;;38.92;7.53;;;;;;;16.04;100.00;99106.13;4904965;29;20272;-50
2022/02/17 01:03:15;;;;;;;50.58;6.00;;;;;;;15.44;100.00;99119.38;4915391;29;20074;-51
2022/02/17 01:05:40;;;;;;;56.97;7.43;;;;;;;15.34;100.00;99110.22;4904542;29;20052;-51
2022/02/17 01:08:07;;;;;;;60.17;8.73;;;;;;;15.09;100.00;99115.59;4911035;29;20279;-51
2022/02/17 01:10:32;;;;;;;45.42;8.50;;;;;;;14.98;100.00;99101.31;4910961;29;20358;-53
2022/02/17 01:12:59;;;;;;;43.55;6.75;;;;;;;14.82;100.00;99132.78;4888169;29;20037;-51
2022/02/17 01:15:28;;;;;;;0.10;0.10;;;;;;;14.85;100.00;99132.25;4915437;29;20063;-47
2022/02/17 01:17:54;;;;;;;0.38;0.38;;;;;;;14.93;100.00;99104.78;4905887;29;20288;-49
2022/02/17 01:20:21;;;;;;;1.90;1.80;;;;;;;16.19;100.00;99151.09;4908642;29;20622;-49
2022/02/17 01:22:49;;;;;;;0.60;0.60;;;;;;;14.96;100.00;99133.88;4896518;29;20290;-50
2022/02/17 01:25:15;;;;;;;35.87;6.73;;;;;;;14.81;100.00;99150.00;4913286;29;20291;-47
2022/02/17 01:27:42;;;;;;;;;;;;;;;14.68;100.00;99183.56;4914621;29;20272;-47
2022/02/17 01:30:10;;;;;;;32.33;6.13;;;;;;;14.67;100.00;99171.97;4891010;29;19915;-52
2022/02/17 01:32:35;;;;;;;36.53;7.13;;;;;;;14.95;100.00;99198.75;4891022;29;20287;-47
2022/02/17 01:35:02;;;;;;;34.45;6.25;;;;;;;14.73;100.00;99208.63;4897983;29;20271;-48
2022/02/17 01:37:28;;;;;;;55.10;7.22;;;;;;;14.85;100.00;99203.00;4886832;29;20051;-48
2022/02/17 01:39:56;;;;;;;40.80;6.00;;;;;;;14.83;100.00;99205.16;4886432;29;20040;-50
2022/02/17 01:42:22;;;;;;;33.55;5.63;;;;;;;15.01;100.00;99206.59;4908606;29;20343;-47
2022/02/17 01:44:51;;;;;;;26.03;5.67;;;;;;;14.76;100.00;99253.88;4917076;29;20060;-51
2022/02/17 01:47:18;;;;;;;37.13;5.63;;;;;;;14.96;100.00;99244.22;4914524;29;20283;-50
2022/02/17 01:49:48;;;;;;;46.27;7.50;;;;;;;15.00;100.00;99236.44;4904082;29;20449;-48
2022/02/17 01:52:16;;;;;;;44.23;7.50;;;;;;;15.21;100.00;99242.69;4901544;29;21091;-49
2022/02/17 01:54:44;;;;;;;53.25;9.07;;;;;;;14.93;100.00;99242.06;4889760;29;20288;-50
2022/02/17 01:57:14;;;;;;;40.87;6.97;;;;;;;14.84;100.00;99236.38;4898167;29;20080;-52
2022/02/17 01:59:44;;;;;;;33.80;6.63;;;;;;;14.84;100.00;99231.00;4899617;29;20292;-47
2022/02/17 02:02:16;;;;;;;30.13;6.40;;;;;;;14.91;100.00;99257.69;4892218;29;20336;-52
2022/02/17 02:04:51;;;;;;;47.43;7.77;;;;;;;15.05;100.00;99234.59;4902051;29;20276;-48
2022/02/17 02:07:17;;;;;;;40.28;6.55;;;;;;;14.87;100.00;99257.38;4915249;29;20268;-50
2022/02/17 02:09:43;;;;;;;29.55;4.63;;;;;;;14.41;100.00;99266.00;4887804;29;20040;-48
2022/02/17 02:12:12;;;;;;;31.73;5.53;;;;;;;14.66;100.00;99272.59;4907056;29;20037;-49
2022/02/17 02:14:54;;;;;;;31.67;5.53;;;;;;;14.92;100.00;99286.22;4886460;29;20304;-48
2022/02/17 02:17:28;;;;;;;40.30;6.03;;;;;;;14.90;100.00;99266.81;4903819;29;20291;-49
2022/02/17 02:19:57;;;;;;;34.13;6.60;;;;;;;14.54;100.00;99290.84;4916199;29;20037;-48
2022/02/17 02:22:30;;;;;;;41.00;6.30;;;;;;;14.76;100.00;99283.47;4912503;29;20271;-52
2022/02/17 02:24:58;;;;;;;38.70;6.40;;;;;;;14.54;100.00;99298.91;4891565;29;20284;-49
2022/02/17 02:27:26;;;;;;;37.30;6.33;;;;;;;14.33;100.00;99299.56;4901922;29;20339;-48
2022/02/17 02:29:52;;;;;;;35.67;6.73;;;;;;;14.79;100.00;99316.31;4891361;29;20279;-47
2022/02/17 02:32:24;;;;;;;36.57;8.20;;;;;;;14.68;100.00;99297.38;4881072;29;20288;-48
2022/02/17 02:34:49;;;;;;;33.92;7.65;;;;;;;14.74;100.00;99309.78;4899140;29;20478;-49
2022/02/17 02:37:15;;;;;;;43.50;5.93;;;;;;;14.82;100.00;99338.09;4889202;29;20073;-50
2022/02/17 02:39:41;;;;;;;;;;;;;;;14.83;100.00;99334.34;4916865;29;20033;-46
2022/02/17 02:42:07;;;;;;;54.23;8.37;;;;;;;14.55;100.00;99360.50;4909537;29;19970;-48
2022/02/17 02:44:34;;;;;;;37.40;6.28;;;;;;;14.49;100.00;99380.38;4894132;29;20041;-49
2022/02/17 02:47:02;;;;;;;41.57;6.87;;;;;;;14.66;100.00;99358.69;4900249;29;20051;-47
2022/02/17 02:49:35;;;;;;;31.53;5.90;;;;;;;14.47;100.00;99380.63;4888974;29;20264;-48
2022/02/17 02:52:00;;;;;;;39.03;6.30;;;;;;;14.10;100.00;99391.31;4898104;29;20435;-48
2022/02/17 02:54:35;;;;;;;31.93;4.73;;;;;;;14.81;100.00;99416.41;4897884;29;20288;-49
2022/02/17 02:57:00;;;;;;;21.87;4.30;;;;;;;14.77;100.00;99426.88;4901287;29;20319;-47
2022/02/17 02:59:26;;;;;;;31.98;5.22;;;;;;;14.59;100.00;99403.84;4916545;29;20032;-48
2022/02/17 03:01:52;;;;;;;25.90;5.40;;;;;;;14.18;100.00;99407.81;4891196;29;20052;-50
2022/02/17 03:04:19;;;;;;;30.65;4.13;;;;;;;14.16;100.00;99428.75;4911072;29;20037;-48
2022/02/17 03:06:45;;;;;;;31.73;4.77;;;;;;;14.30;100.00;99447.16;4897631;29;20052;-48
2022/02/17 03:09:13;;;;;;;31.27;4.00;;;;;;;14.76;100.00;99450.31;4904098;29;20059;-49
2022/02/17 03:11:38;;;;;;;35.43;4.43;;;;;;;14.61;100.00;99461.69;4888264;29;20283;-48
2022/02/17 03:14:03;;;;;;;27.23;3.63;;;;;;;14.71;100.00;99444.84;4914011;29;20125;-49
2022/02/17 03:16:31;;;;;;;37.47;5.47;;;;;;;14.64;100.00;99444.25;4895482;29;20047;-49
2022/02/17 03:18:58;;;;;;;36.95;5.53;;;;;;;14.42;100.00;99466.66;4906104;29;20312;-49
2022/02/17 03:21:24;;;;;;;29.10;4.72;;;;;;;14.41;100.00;99478.47;4917149;29;20037;-51
2022/02/17 03:23:51;;;;;;;18.23;3.37;;;;;;;14.38;100.00;99468.22;4905896;29;20041;-48
2022/02/17 03:26:19;;;;;;;32.03;5.50;;;;;;;14.38;100.00;99481.69;4895380;29;20296;-46
2022/02/17 03:28:49;;;;;;;20.03;4.17;;;;;;;14.48;100.00;99476.38;4913267;29;20279;-49
2022/02/17 03:31:15;;;;;;;20.88;4.32;;;;;;;14.44;100.00;99480.66;4888351;29;20305;-48
2022/02/17 03:33:52;;;;;;;26.40;4.18;;;;;;;14.59;100.00;99488.03;4914857;29;20109;-48
2022/02/17 03:36:25;;;;;;;25.53;4.37;;;;;;;14.33;100.00;99487.81;4894484;29;20061;-50
2022/02/17 03:38:56;;;;;;;24.40;3.97;;;;;;;14.57;100.00;99497.47;4904024;29;20271;-46
2022/02/17 03:41:22;;;;;;;17.40;3.67;;;;;;;14.04;100.00;99497.97;4888575;29;20311;-46
2022/02/17 03:43:50;;;;;;;37.33;6.77;;;;;;;14.56;100.00;99511.97;4914711;29;20299;-46
2022/02/17 03:46:22;;;;;;;18.87;3.77;;;;;;;14.45;100.00;99500.31;4893785;29;20275;-49
2022/02/17 03:48:49;;;;;;;27.90;3.63;;;;;;;14.56;100.00;99517.34;4906353;29;20331;-48
2022/02/17 03:51:18;;;;;;;22.40;3.10;;;;;;;14.47;100.00;99507.03;4899649;29;20302;-48
2022/02/17 03:53:44;;;;;;;28.67;4.33;;;;;;;14.50;100.00;99548.75;4888111;29;20298;-48
2022/02/17 03:56:10;;;;;;;22.05;3.47;;;;;;;14.28;100.00;99525.41;4911407;29;20275;-50
2022/02/17 03:59:01;;;;;;;23.10;4.77;;;;;;;14.63;100.00;99536.78;4914616;29;20063;-50
2022/02/17 04:01:32;;;;;;;16.50;4.10;;;;;;;14.39;100.00;99563.16;4902908;29;20275;-48
2022/02/17 04:04:00;;;;;;;23.70;4.57;;;;;;;14.56;100.00;99541.56;4897070;29;20319;-50
2022/02/17 04:06:27;;;;;;;44.77;7.07;;;;;;;14.43;100.00;99543.59;4909060;29;20298;-48
2022/02/17 04:08:53;;;;;;;39.97;6.20;;;;;;;14.84;100.00;99547.78;4906536;29;20308;-48
2022/02/17 04:11:22;;;;;;;32.63;5.13;;;;;;;14.38;100.00;99562.34;4899450;29;20032;-48
2022/02/17 04:13:49;;;;;;;31.52;5.38;;;;;;;14.62;100.00;99567.44;4888476;29;20359;-50
2022/02/17 04:16:21;;;;;;;47.03;6.80;;;;;;;14.51;100.00;99560.31;4919376;29;20133;-46
2022/02/17 04:19:06;;;;;;;29.73;5.27;;;;;;;14.46;100.00;99569.97;4899536;29;20280;-46
2022/02/17 04:21:53;;;;;;;36.50;5.03;;;;;;;14.24;100.00;99594.19;4918890;29;20279;-47
2022/02/17 04:24:35;;;;;;;39.03;6.43;;;;;;;14.64;100.00;99605.66;4907920;29;20033;-47
2022/02/17 04:27:01;;;;;;;36.93;5.40;;;;;;;14.34;100.00;99572.78;4897413;29;20271;-46
2022/02/17 04:29:34;;;;;;;32.27;4.63;;;;;;;14.62;100.00;99597.84;4886915;29;20284;-47
2022/02/17 04:32:01;;;;;;;34.07;5.60;;;;;;;14.61;100.00;99577.38;4896662;29;20325;-47
2022/02/17 04:34:28;;;;;;;33.07;5.60;;;;;;;14.46;100.00;99602.25;4909481;29;20278;-49
2022/02/17 04:37:02;;;;;;;25.93;5.23;;;;;;;14.33;100.00;99610.72;4888383;29;20292;-49
2022/02/17 04:39:28;;;;;;;40.00;6.95;;;;;;;14.20;100.00;99604.63;4898943;29;20348;-46
2022/02/17 04:44:37;;;;;;;38.83;5.90;;;;;;;14.22;100.00;99643.91;4902234;29;20036;-46
2022/02/17 04:47:04;;;;;;;41.47;6.57;;;;;;;14.73;100.00;99633.78;4904905;29;20291;-47
2022/02/17 04:49:30;;;;;;;40.37;6.20;;;;;;;14.56;100.00;99644.59;4915213;29;20039;-47
2022/02/17 04:51:56;;;;;;;32.33;5.53;;;;;;;14.47;100.00;99646.91;4889053;29;20315;-46
2022/02/17 04:54:25;;;;;;;27.80;5.37;;;;;;;14.31;100.00;99648.59;4872042;29;20053;-49
2022/02/17 04:56:50;;;;;;;43.07;7.03;;;;;;;14.18;100.00;99671.28;4874714;29;20297;-46
2022/02/17 04:59:16;;;;;;;39.55;5.32;;;;;;;14.69;100.00;99664.13;4880798;29;20041;-51
2022/02/17 05:01:46;;;;;;;35.83;6.43;;;;;;;14.27;100.00;99676.22;4880716;29;20061;-47
2022/02/17 05:04:30;;;;;;;37.03;6.07;;;;;;;14.43;100.00;99667.31;4886873;29;20289;-49
2022/02/17 05:07:02;;;;;;;40.30;5.93;;;;;;;14.30;100.00;99683.78;4861233;29;20284;-46
2022/02/17 05:09:28;;;;;;;36.03;5.55;;;;;;;14.25;100.00;99692.63;4865982;29;20282;-51
2022/02/17 05:11:54;;;;;;;35.45;6.38;;;;;;;14.36;100.00;99700.81;4877588;29;20090;-50
2022/02/17 05:14:25;;;;;;;34.13;6.60;;;;;;;14.14;100.00;99688.97;4883268;29;20034;-52
2022/02/17 05:16:52;;;;;;;42.87;6.40;;;;;;;14.24;100.00;99695.56;4862905;29;20304;-47
2022/02/17 05:19:21;;;;;;;37.63;7.20;;;;;;;14.36;100.00;99707.03;4890114;29;20285;-46
2022/02/17 05:21:53;;;;;;;30.30;6.37;;;;;;;13.89;100.00;99679.50;4863797;29;20285;-51
2022/02/17 05:24:45;;;;;;;35.07;5.97;;;;;;;14.63;100.00;99692.84;4870109;29;20772;-46
2022/02/17 05:27:29;;;;;;;35.97;6.37;;;;;;;14.10;100.00;99701.28;4891080;29;20288;-49
2022/02/17 05:30:13;;;;;;;32.37;6.07;;;;;;;14.07;100.00;99715.25;4869889;29;20283;-50
2022/02/17 05:33:13;;;;;;;27.33;4.80;;;;;;;14.50;100.00;99710.16;4880426;29;20361;-46
2022/02/17 05:35:58;;;;;;;33.47;7.07;;;;;;;14.45;100.00;99718.97;4870596;29;20317;-48
2022/02/17 05:38:43;;;;;;;50.10;8.40;;;;;;;14.23;100.00;99718.97;4884647;29;20368;-49
2022/02/17 05:41:18;;;;;;;43.20;6.77;;;;;;;14.33;100.00;99729.03;4869387;29;20826;-48
2022/02/17 05:43:44;;;;;;;34.63;5.63;;;;;;;13.91;100.00;99731.13;4881236;29;20285;-50
2022/02/17 05:46:10;;;;;;;45.37;5.97;;;;;;;13.96;100.00;99737.63;4872683;29;20037;-50
2022/02/17 05:48:37;;;;;;;40.83;6.20;;;;;;;13.94;100.00;99745.13;4874560;29;20287;-47
2022/02/17 05:51:02;;;;;;;42.10;5.70;;;;;;;14.13;100.00;99778.78;4893898;29;20288;-48
2022/02/17 05:53:27;;;;;;;31.87;5.43;;;;;;;14.24;100.00;99803.13;4876306;29;20048;-47
2022/02/17 05:55:53;;;;;;;32.25;5.45;;;;;;;14.02;100.00;99774.28;4917523;29;20041;-45
2022/02/17 05:58:19;;;;;;;31.33;5.23;;;;;;;14.22;100.00;99811.44;4886591;29;20041;-46
2022/02/17 06:00:45;;;;;;;38.35;4.57;;;;;;;14.12;100.00;99801.34;4914004;29;20033;-47
2022/02/17 06:03:10;;;;;;;29.23;5.07;;;;;;;14.28;100.00;99809.63;4907496;29;20060;-45
2022/02/17 06:05:36;;;;;;;35.25;5.82;;;;;;;14.27;100.00;99802.63;4901830;29;20056;-51
2022/02/17 06:08:01;;;;;;;38.20;6.00;;;;;;;14.51;100.00;99813.19;4908417;29;20100;-47
2022/02/17 06:10:34;;;;;;;33.47;5.67;;;;;;;14.32;100.00;99811.59;4921378;29;20032;-46
2022/02/17 06:13:00;;;;;;;37.90;7.60;;;;;;;14.30;100.00;99823.63;4921440;29;20272;-46
2022/02/17 06:15:27;;;;;;;36.08;4.82;;;;;;;14.51;100.00;99821.25;4905925;29;20029;-48
2022/02/17 06:17:52;;;;;;;32.20;5.35;;;;;;;14.40;100.00;99825.66;4917228;29;20045;-51
2022/02/17 06:20:18;;;;;;;27.13;4.27;;;;;;;13.94;100.00;99852.63;4910112;29;20071;-49
2022/02/17 06:22:46;;;;;;;26.98;5.13;;;;;;;14.84;100.00;99847.31;4910592;29;20065;-48
2022/02/17 06:25:13;;;;;;;30.53;5.13;;;;;;;14.22;100.00;99870.59;4902506;29;20045;-50
2022/02/17 06:27:39;;;;;;;32.43;4.93;;;;;;;14.02;100.00;99857.59;4918104;29;20347;-50
2022/02/17 06:30:05;;;;;;;26.50;4.13;;;;;;;13.89;100.00;99874.84;4892208;29;20279;-48
2022/02/17 06:32:31;;;;;;;31.83;4.65;;;;;;;13.99;100.00;99877.75;4911938;29;20109;-47
2022/02/17 06:34:56;;;;;;;27.83;5.70;;;;;;;13.71;100.00;99879.34;4914971;29;20044;-48
2022/02/17 06:37:22;;;;;;;20.70;2.90;;;;;;;14.27;100.00;99894.06;4905494;29;20049;-46
2022/02/17 06:39:47;;;;;;;20.03;3.17;;;;;;;14.03;99.02;99904.94;4917585;29;20097;-50
2022/02/17 06:42:13;;;;;;;21.63;3.23;;;;;;;13.86;97.03;99915.66;4909109;29;20041;-50
2022/02/17 06:44:38;;;;;;;20.67;3.00;;;;;;;14.27;96.18;99888.66;4910801;29;20283;-49
2022/02/17 06:47:04;;;;;;;18.03;3.37;;;;;;;13.99;92.99;99914.53;4914503;29;20048;-50
2022/02/17 06:49:32;;;;;;;20.92;3.58;;;;;;;13.95;95.42;99919.56;4905149;29;20068;-50
2022/02/17 06:51:57;;;;;;;19.47;4.30;;;;;;;13.85;96.22;99922.91;4915214;29;20045;-49
2022/02/17 06:54:23;;;;;;;15.73;3.40;;;;;;;14.06;93.45;99939.41;4909795;29;20336;-48
2022/02/17 06:56:48;;;;;;;26.50;3.27;;;;;;;13.94;92.86;99941.34;4909338;29;20069;-48
2022/02/17 06:59:14;;;;;;;21.23;3.28;;;;;;;13.91;90.95;99946.13;4916736;29;20064;-50
2022/02/17 07:01:40;;;;;;;23.50;3.10;;;;;;;13.75;90.41;99969.22;4905014;29;20060;-50
2022/02/17 07:04:05;;;;;;;19.20;3.00;;;;;;;13.71;89.96;99959.16;4914735;29;20061;-52
2022/02/17 07:06:31;;;;;;;17.67;3.03;;;;;;;13.25;93.51;99958.97;4911044;29;20289;-50
2022/02/17 07:08:56;;;;;;;18.60;2.73;;;;;;;13.49;92.15;99965.16;4908294;29;20056;-49
2022/02/17 07:11:22;;;;;;;12.60;2.33;;;;;;;13.54;90.16;99973.31;4911344;29;20272;-52
2022/02/17 07:13:48;;;;;;;20.83;2.90;;;;;;;13.69;88.23;99964.75;4914075;29;20116;-48
2022/02/17 07:16:14;;;;;;;20.25;2.95;;;;;;;13.56;89.94;99981.97;4908273;29;20048;-49
2022/02/17 07:18:44;;;;;;;18.95;2.17;;;;;;;13.51;82.69;99971.13;4909845;29;20041;-49
2022/02/17 07:21:13;;;;;;;16.67;2.63;;;;;;;13.51;79.61;99971.13;4915609;29;20051;-49
2022/02/17 07:23:39;;;;;;;20.23;3.10;;;;;;;13.13;76.11;99956.28;4904531;29;20276;-50
2022/02/17 07:26:04;;;;;;;11.43;2.83;;;;;;;13.60;73.10;99974.25;4914651;29;20044;-52
2022/02/17 07:28:30;;;;;;;12.30;2.17;;;;;;;13.33;70.69;99991.66;4910145;29;20271;-49
2022/02/17 07:30:56;;;;;;;9.90;2.57;;;;;;;13.45;71.18;100020.41;4907929;29;20033;-49
2022/02/17 07:33:23;;;;;;;7.17;1.73;;;;;;;13.42;67.02;100028.91;4916735;29;20036;-48
2022/02/17 07:35:48;;;;;;;13.17;2.00;;;;;;;13.91;66.39;100031.31;4903606;29;20282;-50
2022/02/17 07:38:14;;;;;;;14.43;2.50;;;;;;;13.96;70.14;100054.81;4918202;29;20032;-48
2022/02/17 07:40:41;;;;;;;7.37;1.87;;;;;;;13.65;71.23;100067.59;4912239;29;20028;-49
2022/02/17 07:43:08;;;;;;;19.20;2.43;;;;;;;14.24;69.08;100061.25;4906221;29;20268;-52
2022/02/17 07:45:36;;;;;;;15.93;2.90;;;;;;;13.68;74.30;100065.22;4913585;29;20302;-49
2022/02/17 07:48:01;;;;;;;21.48;3.00;;;;;;;13.93;74.29;100077.59;4908948;29;20278;-49
2022/02/17 07:50:27;;;;;;;12.13;2.65;;;;;;;13.65;79.88;100076.44;4912378;29;20040;-48
2022/02/17 07:52:53;;;;;;;21.80;3.33;;;;;;;13.80;78.89;100084.03;4905323;29;20116;-51
2022/02/17 07:55:20;;;;;;;14.52;3.10;;;;;;;14.16;79.67;100106.31;4915476;29;20080;-48
2022/02/17 07:57:46;;;;;;;19.48;2.70;;;;;;;13.81;81.68;100080.28;4913634;29;20169;-46
2022/02/17 08:00:13;;;;;;;18.33;2.67;;;;;;;13.82;87.50;100091.88;4906575;29;20052;-47
2022/02/17 08:02:42;;;;;;;18.57;2.40;;;;;;;13.48;78.63;100119.31;4913858;29;20047;-53
2022/02/17 08:05:09;;;;;;;15.97;2.70;;;;;;;13.63;79.10;100116.16;4905981;29;20299;-46
2022/02/17 08:07:36;;;;;;;8.90;2.88;;;;;;;13.72;81.87;100124.69;4909805;29;20272;-46
2022/02/17 08:10:02;;;;;;;12.40;2.93;;;;;;;13.49;75.08;100104.84;4914609;29;20067;-48
2022/02/17 08:12:28;;;;;;;11.57;2.70;;;;;;;13.55;75.31;100113.84;4909002;29;20271;-47
2022/02/17 08:14:58;;;;;;;17.13;2.47;;;;;;;13.83;77.65;100134.63;4907375;29;20279;-51
2022/02/17 08:17:24;;;;;;;17.97;2.77;;;;;;;13.83;79.24;100142.69;4900439;29;20288;-49
2022/02/17 08:19:49;;;;;;;12.48;2.20;;;;;;;13.61;74.62;100140.59;4903726;29;20289;-49
2022/02/17 08:22:14;;;;;;;15.17;2.60;;;;;;;13.82;78.84;100162.53;4912609;29;20045;-51
2022/02/17 08:24:39;;;;;;;16.07;2.37;;;;;;;14.08;72.40;100147.00;4909854;29;20052;-48
2022/02/17 08:27:06;;;;;;;14.10;2.33;;;;;;;14.05;70.30;100155.53;4909443;29;20057;-51
2022/02/17 08:29:32;;;;;;;19.00;2.40;;;;;;;13.72;74.70;100162.31;4913390;29;20354;-51
2022/02/17 08:31:57;;;;;;;20.90;3.93;;;;;;;14.29;75.85;100175.16;4904623;29;20044;-47
2022/02/17 08:34:23;;;;;;;17.08;2.58;;;;;;;14.05;76.76;100160.91;4911412;29;20037;-49
2022/02/17 08:36:51;;;;;;;17.00;2.37;;;;;;;13.91;75.14;100166.53;4911004;29;20044;-47
2022/02/17 08:39:17;;;;;;;14.97;2.50;;;;;;;13.88;71.75;100188.50;4904446;29;20057;-47
2022/02/17 08:41:43;;;;;;;11.68;1.90;;;;;;;14.27;65.11;100192.56;4915655;29;20279;-49
2022/02/17 08:44:09;;;;;;;11.13;1.47;;;;;;;14.69;62.63;100192.34;4889180;29;20068;-50
2022/02/17 08:46:35;;;;;;;8.47;1.70;;;;;;;15.27;58.59;100187.00;4909801;29;20280;-46
2022/02/17 08:49:00;;;;;;;11.57;2.35;;;;;;;14.97;56.05;100198.03;4912374;29;20063;-49
2022/02/17 08:51:29;;;;;;;10.03;1.57;;;;;;;15.30;53.76;100209.94;4902934;29;20041;-47
2022/02/17 08:53:55;;;;;;;7.43;1.70;;;;;;;15.52;50.63;100242.41;4910230;29;20308;-50
2022/02/17 08:56:21;;;;;;;11.40;2.17;;;;;;;15.75;48.81;100219.84;4908655;29;20299;-49
2022/02/17 08:58:47;;;;;;;6.17;1.57;;;;;;;16.16;49.50;100229.66;4912150;29;20292;-50
2022/02/17 09:01:13;;;;;;;10.48;1.83;;;;;;;15.20;51.15;100221.34;4910831;29;20044;-52
2022/02/17 09:03:38;;;;;;;9.90;1.45;;;;;;;15.31;51.20;100225.88;4912327;29;20043;-49
2022/02/17 09:06:04;;;;;;;17.17;3.90;;;;;;;15.39;52.02;100226.53;4910174;29;20045;-48
2022/02/17 09:08:29;;;;;;;10.83;2.30;;;;;;;16.71;49.54;100252.28;4912707;29;20037;-50
2022/02/17 09:10:56;;;;;;;9.37;1.87;;;;;;;16.31;47.64;100243.38;4915241;29;20307;-47
2022/02/17 09:13:23;;;;;;;12.70;2.17;;;;;;;16.29;48.80;100255.47;4915874;29;20040;-49
2022/02/17 09:15:50;;;;;;;10.03;1.70;;;;;;;16.80;46.01;100266.16;4915404;29;20275;-49
2022/02/17 09:18:16;;;;;;;12.10;2.27;;;;;;;16.57;47.03;100272.59;4914620;29;20036;-51
2022/02/17 09:20:42;;;;;;;11.15;2.60;;;;;;;17.16;46.32;100274.69;4910596;29;20280;-53
2022/02/17 09:23:08;;;;;;;9.27;2.15;;;;;;;16.94;47.64;100298.16;4910549;29;20036;-50
2022/02/17 09:25:36;;;;;;;13.65;2.58;;;;;;;17.00;49.48;100279.09;4915062;29;20052;-50
2022/02/17 09:28:05;;;;;;;11.13;1.97;;;;;;;17.68;44.43;100291.44;4907564;29;20044;-51
2022/02/17 09:30:30;;;;;;;15.43;2.30;;;;;;;16.88;46.43;100305.41;4913877;29;20790;-50
2022/02/17 09:32:56;;;;;;;9.88;1.92;;;;;;;16.36;46.97;100301.97;4910938;29;20331;-49
2022/02/17 09:35:22;;;;;;;15.43;2.28;;;;;;;16.14;49.79;100310.03;4913044;29;20037;-51
2022/02/17 09:37:47;;;;;;;12.87;2.37;;;;;;;16.57;47.04;100313.06;4914613;29;20052;-50
2022/02/17 09:40:13;;;;;;;9.03;2.00;;;;;;;16.88;45.89;100321.63;4917176;29;20279;-56
2022/02/17 09:42:39;;;;;;;12.00;2.33;;;;;;;17.00;47.16;100327.72;4907950;29;20041;-52
2022/02/17 09:45:09;;;;;;;12.07;1.88;;;;;;;17.97;43.25;100333.59;4913805;29;20088;-51
2022/02/17 09:47:39;;;;;;;12.40;1.77;;;;;;;17.94;43.57;100301.66;4912832;29;20061;-49
2022/02/17 09:50:07;;;;;;;11.83;2.10;;;;;;;17.96;42.89;100313.03;4912147;29;20284;-48
2022/02/17 09:52:33;;;;;;;8.33;1.73;;;;;;;18.24;42.55;100327.38;4915876;29;20279;-50
2022/02/17 09:54:59;;;;;;;10.18;1.80;;;;;;;18.85;42.00;100334.22;4920790;29;20053;-48
2022/02/17 09:57:25;;;;;;;15.73;1.80;;;;;;;17.90;42.70;100342.75;4906609;29;20033;-50
2022/02/17 09:59:51;;;;;;;13.65;2.85;;;;;;;18.00;42.35;100346.63;4918465;29;20041;-51
2022/02/17 10:02:24;;;;;;;7.93;1.93;;;;;;;18.23;42.56;100355.50;4892559;29;20080;-50
2022/02/17 10:04:57;;;;;;;14.90;2.80;;;;;;;19.08;40.42;100354.69;4915343;29;20052;-50
2022/02/17 10:07:37;;;;;;;15.87;2.70;;;;;;;18.18;40.56;100367.09;4905950;29;20036;-51
2022/02/17 10:10:23;;;;;;;9.80;2.00;;;;;;;18.95;39.41;100363.25;4906933;29;20060;-53
2022/02/17 10:13:01;;;;;;;6.40;1.57;;;;;;;18.38;38.62;100384.56;4911711;29;20072;-50
2022/02/17 10:15:32;;;;;;;6.70;1.70;;;;;;;19.22;38.56;100365.84;4911747;29;20032;-48
2022/02/17 10:18:13;;;;;;;7.23;1.90;;;;;;;19.65;37.66;100383.88;4911753;29;20056;-49
2022/02/17 10:20:59;;;;;;;11.10;2.00;;;;;;;19.86;35.09;100396.41;4911884;29;20036;-49
2022/02/17 10:23:27;;;;;;;12.47;2.17;;;;;;;20.07;35.94;100396.47;4910915;29;20051;-48
2022/02/17 10:26:20;;;;;;;8.40;2.00;;;;;;;19.33;37.56;100413.59;4912352;29;20129;-47
2022/02/17 10:28:48;;;;;;;13.13;2.07;;;;;;;20.12;35.63;100401.06;4907486;29;20048;-50
2022/02/17 10:31:23;;;;;;;10.80;2.50;;;;;;;21.46;35.10;100405.47;4912560;29;20040;-50
2022/02/17 10:33:53;;;;;;;10.10;1.83;;;;;;;21.59;34.19;100433.97;4910713;29;20068;-50
2022/02/17 10:36:40;;;;;;;10.30;2.37;;;;;;;20.22;34.71;100400.25;4910719;29;20033;-54
2022/02/17 10:39:14;;;;;;;10.13;2.08;;;;;;;21.30;34.21;100440.06;4911047;29;20037;-51
2022/02/17 10:41:47;;;;;;;11.27;2.10;;;;;;;20.68;35.31;100440.97;4910312;29;20037;-50
2022/02/17 10:44:14;;;;;;;12.90;2.20;;;;;;;21.84;33.92;100437.69;4912228;29;20060;-49
2022/02/17 10:46:40;;;;;;;8.80;1.90;;;;;;;22.80;32.92;100458.22;4904129;29;20033;-52
2022/02/17 10:49:14;;;;;;;10.40;2.00;;;;;;;22.90;33.83;100471.72;4920911;29;20100;-47
2022/02/17 10:51:39;;;;;;;6.87;1.63;;;;;;;21.45;33.76;100445.44;4904719;29;20036;-51
2022/02/17 10:54:06;;;;;;;;;;;;;;;21.65;33.86;100475.59;4915963;29;20142;-55
2022/02/17 10:56:34;;;;;;;8.13;1.73;;;;;;;22.10;33.57;100464.75;4909953;29;19915;-49
2022/02/17 10:59:05;;;;;;;13.20;2.70;;;;;;;22.22;32.66;100456.22;4908972;29;20172;-48
2022/02/17 11:01:31;;;;;;;6.93;1.77;;;;;;;22.74;32.59;100473.78;4917119;29;20040;-51
2022/02/17 11:03:57;;;;;;;7.22;1.65;;;;;;;21.75;32.46;100484.53;4906537;29;20040;-49
2022/02/17 11:06:22;;;;;;;13.45;2.33;;;;;;;21.72;31.94;100487.00;4909369;29;20096;-51
2022/02/17 11:08:50;;;;;;;11.98;2.70;;;;;;;22.18;31.24;100494.09;4910529;29;20029;-52
2022/02/17 11:11:18;;;;;;;10.60;1.73;;;;;;;23.39;32.02;100492.81;4910316;29;20049;-52
2022/02/17 11:13:49;;;;;;;10.03;2.10;;;;;;;23.41;30.84;100496.88;4908555;29;20061;-50
2022/02/17 11:16:15;;;;;;;10.37;1.50;;;;;;;23.87;30.80;100498.22;4907069;29;20036;-54
2022/02/17 11:18:42;;;;;;;11.90;2.28;;;;;;;23.46;30.22;100510.47;4919946;29;20040;-52
2022/02/17 11:21:14;;;;;;;8.90;1.67;;;;;;;22.49;29.59;100499.38;4906564;29;20045;-54
2022/02/17 11:23:40;;;;;;;5.67;1.20;;;;;;;22.24;30.69;100498.41;4917618;29;20164;-54
2022/02/17 11:26:20;;;;;;;6.38;1.70;;;;;;;22.72;29.62;100505.97;4919981;29;20032;-51
2022/02/17 11:28:45;;;;;;;4.10;1.33;;;;;;;22.78;31.04;100501.31;4912507;29;20085;-52